sensor_id;sensor_type;location;lat;lon;timestamp;P1;durP1;ratioP1;P2;durP2;ratioP2
8171;SDS011;4127;47.908;10.850;2023-07-30T07:18:02;1.90;;;1.80;;
8171;SDS011;4127;47.908;10.850;2023-07-30T07:20:29;3.00;;;2.00;;
8171;SDS011;4127;47.908;10.850;2023-07-30T07:22:56;2.03;;;1.70;;
8171;SDS011;4127;47.908;10.850;2023-07-30T07:25:23;2.13;;;1.93;;
8171;SDS011;4127;47.908;10.850;2023-07-30T07:27:50;1.73;;;1.60;;
8171;SDS011;4127;47.908;10.850;2023-07-30T07:30:17;2.20;;;2.00;;
8171;SDS011;4127;47.908;10.850;2023-07-30T07:33:18;2.70;;;2.00;;
8171;SDS011;4127;47.908;10.850;2023-07-30T07:35:45;2.50;;;2.30;;
8171;SDS011;4127;47.908;10.850;2023-07-30T07:38:12;2.17;;;1.97;;
8171;SDS011;4127;47.908;10.850;2023-07-30T07:40:38;2.10;;;1.90;;
8171;SDS011;4127;47.908;10.850;2023-07-30T07:43:06;1.90;;;1.80;;
8171;SDS011;4127;47.908;10.850;2023-07-30T07:45:34;2.40;;;1.80;;
8171;SDS011;4127;47.908;10.850;2023-07-30T07:48:00;2.07;;;1.90;;
8171;SDS011;4127;47.908;10.850;2023-07-30T07:50:27;1.93;;;1.73;;
8171;SDS011;4127;47.908;10.850;2023-07-30T07:52:54;2.00;;;1.90;;
8171;SDS011;4127;47.908;10.850;2023-07-30T07:55:21;2.10;;;1.90;;
8171;SDS011;4127;47.908;10.850;2023-07-30T07:57:49;2.67;;;2.47;;
8171;SDS011;4127;47.908;10.850;2023-07-30T08:00:17;2.33;;;2.13;;
8171;SDS011;4127;47.908;10.850;2023-07-30T08:02:44;1.70;;;1.60;;
8171;SDS011;4127;47.908;10.850;2023-07-30T08:05:15;2.20;;;2.00;;
8171;SDS011;4127;47.908;10.850;2023-07-30T08:07:44;2.17;;;1.97;;
8171;SDS011;4127;47.908;10.850;2023-07-30T08:10:14;2.00;;;1.70;;
8171;SDS011;4127;47.908;10.850;2023-07-30T08:12:41;1.90;;;1.80;;
8171;SDS011;4127;47.908;10.850;2023-07-30T08:15:09;2.53;;;2.30;;
8171;SDS011;4127;47.908;10.850;2023-07-30T08:17:36;2.13;;;1.93;;
8171;SDS011;4127;47.908;10.850;2023-07-30T08:20:03;1.90;;;1.80;;
8171;SDS011;4127;47.908;10.850;2023-07-30T08:22:30;2.63;;;2.10;;
8171;SDS011;4127;47.908;10.850;2023-07-30T08:24:57;2.08;;;1.88;;
8171;SDS011;4127;47.908;10.850;2023-07-30T08:27:24;1.83;;;1.73;;
8171;SDS011;4127;47.908;10.850;2023-07-30T08:29:51;1.80;;;1.70;;
8171;SDS011;4127;47.908;10.850;2023-07-30T08:32:17;1.83;;;1.73;;
8171;SDS011;4127;47.908;10.850;2023-07-30T08:34:44;3.65;;;2.28;;
8171;SDS011;4127;47.908;10.850;2023-07-30T08:37:11;2.20;;;2.00;;
8171;SDS011;4127;47.908;10.850;2023-07-30T08:39:38;2.93;;;2.60;;
8171;SDS011;4127;47.908;10.850;2023-07-30T08:42:05;2.45;;;2.25;;
8171;SDS011;4127;47.908;10.850;2023-07-30T08:44:32;1.95;;;1.80;;
8171;SDS011;4127;47.908;10.850;2023-07-30T08:46:59;2.38;;;2.08;;
8171;SDS011;4127;47.908;10.850;2023-07-30T08:49:26;1.83;;;1.73;;
8171;SDS011;4127;47.908;10.850;2023-07-30T08:51:59;2.10;;;1.95;;
8171;SDS011;4127;47.908;10.850;2023-07-30T08:54:28;1.80;;;1.70;;
8171;SDS011;4127;47.908;10.850;2023-07-30T08:56:57;2.45;;;1.80;;
8171;SDS011;4127;47.908;10.850;2023-07-30T08:59:24;1.70;;;1.60;;
8171;SDS011;4127;47.908;10.850;2023-07-30T09:01:55;1.67;;;1.58;;
8171;SDS011;4127;47.908;10.850;2023-07-30T09:04:23;1.70;;;1.60;;
8171;SDS011;4127;47.908;10.850;2023-07-30T09:06:50;1.65;;;1.55;;
8171;SDS011;4127;47.908;10.850;2023-07-30T09:09:19;2.40;;;2.20;;
8171;SDS011;4127;47.908;10.850;2023-07-30T09:11:50;2.92;;;2.70;;
8171;SDS011;4127;47.908;10.850;2023-07-30T09:14:20;2.42;;;2.22;;
8171;SDS011;4127;47.908;10.850;2023-07-30T09:16:56;2.42;;;2.22;;
8171;SDS011;4127;47.908;10.850;2023-07-30T09:19:24;2.67;;;2.40;;
8171;SDS011;4127;47.908;10.850;2023-07-30T09:21:51;2.30;;;2.10;;
8171;SDS011;4127;47.908;10.850;2023-07-30T09:24:21;2.55;;;2.35;;
8171;SDS011;4127;47.908;10.850;2023-07-30T09:26:48;2.53;;;2.33;;
8171;SDS011;4127;47.908;10.850;2023-07-30T09:29:15;2.00;;;1.67;;
8171;SDS011;4127;47.908;10.850;2023-07-30T09:31:52;2.17;;;1.55;;
8171;SDS011;4127;47.908;10.850;2023-07-30T09:34:21;1.70;;;1.60;;
8171;SDS011;4127;47.908;10.850;2023-07-30T09:36:51;1.50;;;1.40;;
8171;SDS011;4127;47.908;10.850;2023-07-30T09:39:19;1.55;;;1.45;;
8171;SDS011;4127;47.908;10.850;2023-07-30T09:41:51;1.75;;;1.40;;
8171;SDS011;4127;47.908;10.850;2023-07-30T09:44:25;2.40;;;2.20;;
8171;SDS011;4127;47.908;10.850;2023-07-30T09:46:52;2.17;;;1.60;;
8171;SDS011;4127;47.908;10.850;2023-07-30T09:49:19;2.00;;;1.75;;
8171;SDS011;4127;47.908;10.850;2023-07-30T09:51:46;3.33;;;2.20;;
8171;SDS011;4127;47.908;10.850;2023-07-30T09:54:14;1.67;;;1.58;;
8171;SDS011;4127;47.908;10.850;2023-07-30T09:56:41;1.40;;;1.30;;
8171;SDS011;4127;47.908;10.850;2023-07-30T09:59:09;1.40;;;1.30;;
8171;SDS011;4127;47.908;10.850;2023-07-30T10:01:38;1.70;;;1.60;;
8171;SDS011;4127;47.908;10.850;2023-07-30T10:04:11;1.92;;;1.83;;
8171;SDS011;4127;47.908;10.850;2023-07-30T10:07:01;1.50;;;1.40;;
8171;SDS011;4127;47.908;10.850;2023-07-30T10:09:37;1.60;;;1.50;;
8171;SDS011;4127;47.908;10.850;2023-07-30T10:12:10;1.70;;;1.60;;
8171;SDS011;4127;47.908;10.850;2023-07-30T10:14:41;1.52;;;1.42;;
8171;SDS011;4127;47.908;10.850;2023-07-30T10:17:09;1.60;;;1.50;;
8171;SDS011;4127;47.908;10.850;2023-07-30T10:19:37;1.52;;;1.40;;
8171;SDS011;4127;47.908;10.850;2023-07-30T10:24:40;1.58;;;1.48;;
8171;SDS011;4127;47.908;10.850;2023-07-30T10:27:08;1.60;;;1.50;;
8171;SDS011;4127;47.908;10.850;2023-07-30T10:29:41;1.85;;;1.50;;
8171;SDS011;4127;47.908;10.850;2023-07-30T10:32:08;1.58;;;1.48;;
8171;SDS011;4127;47.908;10.850;2023-07-30T10:34:45;1.90;;;1.30;;
8171;SDS011;4127;47.908;10.850;2023-07-30T10:37:22;1.40;;;1.30;;
8171;SDS011;4127;47.908;10.850;2023-07-30T10:39:51;2.80;;;1.80;;
8171;SDS011;4127;47.908;10.850;2023-07-30T10:42:19;1.40;;;1.30;;
8171;SDS011;4127;47.908;10.850;2023-07-30T10:44:46;2.28;;;1.48;;
8171;SDS011;4127;47.908;10.850;2023-07-30T10:47:13;1.90;;;1.60;;
8171;SDS011;4127;47.908;10.850;2023-07-30T10:50:03;1.50;;;1.40;;
8171;SDS011;4127;47.908;10.850;2023-07-30T10:52:30;1.55;;;1.45;;
8171;SDS011;4127;47.908;10.850;2023-07-30T10:55:00;1.50;;;1.40;;
8171;SDS011;4127;47.908;10.850;2023-07-30T10:57:30;1.50;;;1.40;;
8171;SDS011;4127;47.908;10.850;2023-07-30T11:00:01;1.67;;;1.58;;
8171;SDS011;4127;47.908;10.850;2023-07-30T11:02:28;1.50;;;1.40;;
8171;SDS011;4127;47.908;10.850;2023-07-30T11:04:56;1.60;;;1.50;;
8171;SDS011;4127;47.908;10.850;2023-07-30T11:07:23;1.70;;;1.60;;
8171;SDS011;4127;47.908;10.850;2023-07-30T11:09:59;1.40;;;1.30;;
8171;SDS011;4127;47.908;10.850;2023-07-30T11:12:30;1.90;;;1.35;;
8171;SDS011;4127;47.908;10.850;2023-07-30T11:15:00;1.60;;;1.50;;
8171;SDS011;4127;47.908;10.850;2023-07-30T11:17:30;1.60;;;1.50;;
8171;SDS011;4127;47.908;10.850;2023-07-30T11:19:57;1.38;;;1.27;;
8171;SDS011;4127;47.908;10.850;2023-07-30T11:22:31;1.52;;;1.42;;
8171;SDS011;4127;47.908;10.850;2023-07-30T11:24:59;1.40;;;1.30;;
8171;SDS011;4127;47.908;10.850;2023-07-30T11:27:28;1.60;;;1.50;;
8171;SDS011;4127;47.908;10.850;2023-07-30T11:29:57;1.50;;;1.40;;
8171;SDS011;4127;47.908;10.850;2023-07-30T11:32:26;1.42;;;1.30;;
8171;SDS011;4127;47.908;10.850;2023-07-30T11:34:56;1.50;;;1.40;;
8171;SDS011;4127;47.908;10.850;2023-07-30T11:37:23;1.45;;;1.35;;
8171;SDS011;4127;47.908;10.850;2023-07-30T11:39:50;1.55;;;1.45;;
8171;SDS011;4127;47.908;10.850;2023-07-30T11:42:18;1.58;;;1.48;;
8171;SDS011;4127;47.908;10.850;2023-07-30T11:44:46;1.40;;;1.30;;
8171;SDS011;4127;47.908;10.850;2023-07-30T11:47:13;1.70;;;1.60;;
8171;SDS011;4127;47.908;10.850;2023-07-30T11:49:55;1.40;;;1.30;;
8171;SDS011;4127;47.908;10.850;2023-07-30T11:52:24;1.50;;;1.40;;
8171;SDS011;4127;47.908;10.850;2023-07-30T11:55:03;1.60;;;1.50;;
8171;SDS011;4127;47.908;10.850;2023-07-30T11:57:37;1.50;;;1.40;;
8171;SDS011;4127;47.908;10.850;2023-07-30T12:00:05;2.83;;;1.40;;
8171;SDS011;4127;47.908;10.850;2023-07-30T12:02:34;1.52;;;1.42;;
8171;SDS011;4127;47.908;10.850;2023-07-30T12:05:01;1.70;;;1.60;;
8171;SDS011;4127;47.908;10.850;2023-07-30T12:07:40;1.60;;;1.50;;
8171;SDS011;4127;47.908;10.850;2023-07-30T12:10:11;1.42;;;1.33;;
8171;SDS011;4127;47.908;10.850;2023-07-30T12:12:45;1.60;;;1.50;;
8171;SDS011;4127;47.908;10.850;2023-07-30T12:15:12;1.80;;;1.70;;
8171;SDS011;4127;47.908;10.850;2023-07-30T12:17:39;2.70;;;1.40;;
8171;SDS011;4127;47.908;10.850;2023-07-30T12:20:06;1.60;;;1.50;;
8171;SDS011;4127;47.908;10.850;2023-07-30T12:22:34;1.55;;;1.45;;
8171;SDS011;4127;47.908;10.850;2023-07-30T12:25:02;1.70;;;1.60;;
8171;SDS011;4127;47.908;10.850;2023-07-30T12:27:32;1.73;;;1.63;;
8171;SDS011;4127;47.908;10.850;2023-07-30T12:29:58;1.58;;;1.48;;
8171;SDS011;4127;47.908;10.850;2023-07-30T12:32:25;1.63;;;1.52;;
8171;SDS011;4127;47.908;10.850;2023-07-30T12:34:54;1.50;;;1.40;;
8171;SDS011;4127;47.908;10.850;2023-07-30T12:37:22;2.45;;;1.77;;
8171;SDS011;4127;47.908;10.850;2023-07-30T12:39:48;1.58;;;1.48;;
8171;SDS011;4127;47.908;10.850;2023-07-30T12:42:15;1.60;;;1.50;;
8171;SDS011;4127;47.908;10.850;2023-07-30T12:44:42;1.70;;;1.60;;
8171;SDS011;4127;47.908;10.850;2023-07-30T12:47:09;1.60;;;1.50;;
8171;SDS011;4127;47.908;10.850;2023-07-30T12:49:36;1.67;;;1.58;;
8171;SDS011;4127;47.908;10.850;2023-07-30T12:52:03;1.70;;;1.60;;
8171;SDS011;4127;47.908;10.850;2023-07-30T12:54:30;2.05;;;1.50;;
8171;SDS011;4127;47.908;10.850;2023-07-30T12:56:57;1.60;;;1.50;;
8171;SDS011;4127;47.908;10.850;2023-07-30T12:59:24;1.80;;;1.70;;
8171;SDS011;4127;47.908;10.850;2023-07-30T13:01:51;1.80;;;1.70;;
8171;SDS011;4127;47.908;10.850;2023-07-30T13:04:18;1.70;;;1.60;;
8171;SDS011;4127;47.908;10.850;2023-07-30T13:06:45;1.58;;;1.48;;
8171;SDS011;4127;47.908;10.850;2023-07-30T13:09:11;2.20;;;1.70;;
8171;SDS011;4127;47.908;10.850;2023-07-30T13:11:38;1.90;;;1.80;;
8171;SDS011;4127;47.908;10.850;2023-07-30T13:14:06;2.35;;;1.75;;
8171;SDS011;4127;47.908;10.850;2023-07-30T13:16:33;2.35;;;1.70;;
8171;SDS011;4127;47.908;10.850;2023-07-30T13:19:00;1.90;;;1.80;;
8171;SDS011;4127;47.908;10.850;2023-07-30T13:21:27;1.85;;;1.58;;
8171;SDS011;4127;47.908;10.850;2023-07-30T13:23:53;1.65;;;1.55;;
8171;SDS011;4127;47.908;10.850;2023-07-30T13:26:20;1.80;;;1.70;;
8171;SDS011;4127;47.908;10.850;2023-07-30T13:28:47;1.75;;;1.65;;
8171;SDS011;4127;47.908;10.850;2023-07-30T13:31:14;1.65;;;1.50;;
8171;SDS011;4127;47.908;10.850;2023-07-30T13:33:41;1.67;;;1.58;;
8171;SDS011;4127;47.908;10.850;2023-07-30T13:36:08;1.73;;;1.63;;
8171;SDS011;4127;47.908;10.850;2023-07-30T13:38:35;2.22;;;2.03;;
8171;SDS011;4127;47.908;10.850;2023-07-30T13:41:02;2.42;;;1.98;;
8171;SDS011;4127;47.908;10.850;2023-07-30T13:43:29;1.88;;;1.60;;
8171;SDS011;4127;47.908;10.850;2023-07-30T13:45:56;1.80;;;1.70;;
8171;SDS011;4127;47.908;10.850;2023-07-30T13:48:24;1.73;;;1.63;;
8171;SDS011;4127;47.908;10.850;2023-07-30T13:50:51;1.83;;;1.73;;
8171;SDS011;4127;47.908;10.850;2023-07-30T13:53:19;1.80;;;1.70;;
8171;SDS011;4127;47.908;10.850;2023-07-30T13:55:46;2.38;;;1.73;;
8171;SDS011;4127;47.908;10.850;2023-07-30T13:58:13;4.13;;;1.70;;
8171;SDS011;4127;47.908;10.850;2023-07-30T14:00:40;1.73;;;1.60;;
8171;SDS011;4127;47.908;10.850;2023-07-30T14:03:08;1.77;;;1.63;;
8171;SDS011;4127;47.908;10.850;2023-07-30T14:05:36;1.70;;;1.60;;
8171;SDS011;4127;47.908;10.850;2023-07-30T14:08:03;1.63;;;1.48;;
8171;SDS011;4127;47.908;10.850;2023-07-30T14:10:30;1.88;;;1.77;;
8171;SDS011;4127;47.908;10.850;2023-07-30T14:12:57;2.10;;;1.70;;
8171;SDS011;4127;47.908;10.850;2023-07-30T14:15:24;1.88;;;1.70;;
8171;SDS011;4127;47.908;10.850;2023-07-30T14:17:51;1.73;;;1.63;;
8171;SDS011;4127;47.908;10.850;2023-07-30T14:20:19;1.60;;;1.50;;
8171;SDS011;4127;47.908;10.850;2023-07-30T14:22:46;2.35;;;2.10;;
8171;SDS011;4127;47.908;10.850;2023-07-30T14:25:12;1.55;;;1.45;;
8171;SDS011;4127;47.908;10.850;2023-07-30T14:27:40;1.70;;;1.60;;
8171;SDS011;4127;47.908;10.850;2023-07-30T14:30:07;2.50;;;1.60;;
8171;SDS011;4127;47.908;10.850;2023-07-30T14:32:34;1.73;;;1.63;;
8171;SDS011;4127;47.908;10.850;2023-07-30T14:35:01;1.90;;;1.80;;
8171;SDS011;4127;47.908;10.850;2023-07-30T14:37:28;1.58;;;1.48;;
8171;SDS011;4127;47.908;10.850;2023-07-30T14:39:55;1.67;;;1.58;;
8171;SDS011;4127;47.908;10.850;2023-07-30T14:42:22;1.90;;;1.80;;
8171;SDS011;4127;47.908;10.850;2023-07-30T14:44:49;2.30;;;1.73;;
8171;SDS011;4127;47.908;10.850;2023-07-30T14:47:17;2.28;;;2.08;;
8171;SDS011;4127;47.908;10.850;2023-07-30T14:49:44;1.88;;;1.77;;
8171;SDS011;4127;47.908;10.850;2023-07-30T14:52:12;1.80;;;1.70;;
8171;SDS011;4127;47.908;10.850;2023-07-30T14:54:38;1.80;;;1.70;;
8171;SDS011;4127;47.908;10.850;2023-07-30T14:57:05;1.70;;;1.60;;
8171;SDS011;4127;47.908;10.850;2023-07-30T14:59:32;1.98;;;1.88;;
8171;SDS011;4127;47.908;10.850;2023-07-30T15:01:59;1.92;;;1.83;;
8171;SDS011;4127;47.908;10.850;2023-07-30T15:04:26;1.90;;;1.80;;
8171;SDS011;4127;47.908;10.850;2023-07-30T15:06:53;1.85;;;1.75;;
8171;SDS011;4127;47.908;10.850;2023-07-30T15:09:20;1.75;;;1.65;;
8171;SDS011;4127;47.908;10.850;2023-07-30T15:11:47;1.77;;;1.67;;
8171;SDS011;4127;47.908;10.850;2023-07-30T15:14:13;1.98;;;1.65;;
8171;SDS011;4127;47.908;10.850;2023-07-30T15:16:40;2.00;;;1.80;;
8171;SDS011;4127;47.908;10.850;2023-07-30T15:19:07;1.70;;;1.60;;
8171;SDS011;4127;47.908;10.850;2023-07-30T15:21:34;1.60;;;1.50;;
8171;SDS011;4127;47.908;10.850;2023-07-30T15:24:05;1.83;;;1.70;;
8171;SDS011;4127;47.908;10.850;2023-07-30T15:26:32;1.70;;;1.60;;
8171;SDS011;4127;47.908;10.850;2023-07-30T15:28:59;2.53;;;1.88;;
8171;SDS011;4127;47.908;10.850;2023-07-30T15:31:26;1.85;;;1.63;;
8171;SDS011;4127;47.908;10.850;2023-07-30T15:33:53;1.85;;;1.75;;
8171;SDS011;4127;47.908;10.850;2023-07-30T15:36:21;2.10;;;1.80;;
8171;SDS011;4127;47.908;10.850;2023-07-30T15:38:49;1.90;;;1.80;;
8171;SDS011;4127;47.908;10.850;2023-07-30T15:41:21;2.15;;;1.88;;
8171;SDS011;4127;47.908;10.850;2023-07-30T15:43:48;1.80;;;1.70;;
8171;SDS011;4127;47.908;10.850;2023-07-30T15:46:15;1.65;;;1.40;;
8171;SDS011;4127;47.908;10.850;2023-07-30T15:48:46;1.75;;;1.65;;
8171;SDS011;4127;47.908;10.850;2023-07-30T15:51:13;1.60;;;1.50;;
8171;SDS011;4127;47.908;10.850;2023-07-30T15:53:40;2.10;;;1.90;;
8171;SDS011;4127;47.908;10.850;2023-07-30T15:56:09;1.67;;;1.58;;
8171;SDS011;4127;47.908;10.850;2023-07-30T15:58:36;1.83;;;1.73;;
8171;SDS011;4127;47.908;10.850;2023-07-30T16:01:04;1.98;;;1.88;;
8171;SDS011;4127;47.908;10.850;2023-07-30T16:03:36;1.73;;;1.63;;
8171;SDS011;4127;47.908;10.850;2023-07-30T16:06:04;1.92;;;1.77;;
8171;SDS011;4127;47.908;10.850;2023-07-30T16:08:33;1.77;;;1.67;;
8171;SDS011;4127;47.908;10.850;2023-07-30T16:11:01;2.03;;;1.90;;
8171;SDS011;4127;47.908;10.850;2023-07-30T16:13:32;2.30;;;1.50;;
8171;SDS011;4127;47.908;10.850;2023-07-30T16:16:15;1.90;;;1.70;;
8171;SDS011;4127;47.908;10.850;2023-07-30T16:18:46;2.28;;;1.90;;
8171;SDS011;4127;47.908;10.850;2023-07-30T16:21:13;2.22;;;1.60;;
8171;SDS011;4127;47.908;10.850;2023-07-30T16:23:40;2.20;;;2.00;;
8171;SDS011;4127;47.908;10.850;2023-07-30T16:26:08;2.03;;;1.83;;
8171;SDS011;4127;47.908;10.850;2023-07-30T16:28:35;3.38;;;2.20;;
8171;SDS011;4127;47.908;10.850;2023-07-30T16:31:02;1.92;;;1.60;;
8171;SDS011;4127;47.908;10.850;2023-07-30T16:33:29;1.70;;;1.60;;
8171;SDS011;4127;47.908;10.850;2023-07-30T16:35:56;2.10;;;1.83;;
8171;SDS011;4127;47.908;10.850;2023-07-30T16:38:23;2.00;;;1.80;;
8171;SDS011;4127;47.908;10.850;2023-07-30T16:40:51;1.77;;;1.67;;
8171;SDS011;4127;47.908;10.850;2023-07-30T16:43:18;1.70;;;1.60;;
8171;SDS011;4127;47.908;10.850;2023-07-30T16:45:46;1.58;;;1.48;;
8171;SDS011;4127;47.908;10.850;2023-07-30T16:48:13;2.05;;;1.80;;
8171;SDS011;4127;47.908;10.850;2023-07-30T16:50:44;1.70;;;1.60;;
8171;SDS011;4127;47.908;10.850;2023-07-30T16:53:12;5.68;;;2.75;;
8171;SDS011;4127;47.908;10.850;2023-07-30T16:55:40;2.10;;;1.70;;
8171;SDS011;4127;47.908;10.850;2023-07-30T16:58:07;2.85;;;1.60;;
8171;SDS011;4127;47.908;10.850;2023-07-30T17:00:34;1.70;;;1.60;;
8171;SDS011;4127;47.908;10.850;2023-07-30T17:03:01;1.95;;;1.75;;
8171;SDS011;4127;47.908;10.850;2023-07-30T17:05:31;2.30;;;2.10;;
8171;SDS011;4127;47.908;10.850;2023-07-30T17:07:58;1.90;;;1.70;;
8171;SDS011;4127;47.908;10.850;2023-07-30T17:10:25;1.77;;;1.67;;
8171;SDS011;4127;47.908;10.850;2023-07-30T17:12:52;2.45;;;1.90;;
8171;SDS011;4127;47.908;10.850;2023-07-30T17:15:19;1.75;;;1.65;;
8171;SDS011;4127;47.908;10.850;2023-07-30T17:17:46;1.83;;;1.67;;
8171;SDS011;4127;47.908;10.850;2023-07-30T17:20:15;2.05;;;1.73;;
8171;SDS011;4127;47.908;10.850;2023-07-30T17:22:42;1.88;;;1.48;;
8171;SDS011;4127;47.908;10.850;2023-07-30T17:25:09;1.80;;;1.70;;
8171;SDS011;4127;47.908;10.850;2023-07-30T17:27:36;1.55;;;1.40;;
8171;SDS011;4127;47.908;10.850;2023-07-30T17:30:03;1.70;;;1.55;;
8171;SDS011;4127;47.908;10.850;2023-07-30T17:32:30;1.67;;;1.58;;
8171;SDS011;4127;47.908;10.850;2023-07-30T17:34:58;1.65;;;1.55;;
8171;SDS011;4127;47.908;10.850;2023-07-30T17:37:25;1.85;;;1.52;;
8171;SDS011;4127;47.908;10.850;2023-07-30T17:39:51;1.65;;;1.55;;
8171;SDS011;4127;47.908;10.850;2023-07-30T17:42:19;1.55;;;1.45;;
8171;SDS011;4127;47.908;10.850;2023-07-30T17:44:48;1.75;;;1.60;;
8171;SDS011;4127;47.908;10.850;2023-07-30T17:47:18;1.95;;;1.70;;
8171;SDS011;4127;47.908;10.850;2023-07-30T17:49:46;1.80;;;1.70;;
8171;SDS011;4127;47.908;10.850;2023-07-30T17:52:14;2.45;;;1.75;;
8171;SDS011;4127;47.908;10.850;2023-07-30T17:54:47;1.67;;;1.58;;
8171;SDS011;4127;47.908;10.850;2023-07-30T17:57:15;2.22;;;2.03;;
8171;SDS011;4127;47.908;10.850;2023-07-30T17:59:42;2.10;;;2.00;;
8171;SDS011;4127;47.908;10.850;2023-07-30T18:02:09;2.45;;;2.22;;
8171;SDS011;4127;47.908;10.850;2023-07-30T18:04:36;2.20;;;2.00;;
8171;SDS011;4127;47.908;10.850;2023-07-30T18:07:03;1.93;;;1.70;;
8171;SDS011;4127;47.908;10.850;2023-07-30T18:09:30;2.97;;;2.15;;
8171;SDS011;4127;47.908;10.850;2023-07-30T18:11:57;2.03;;;1.92;;
8171;SDS011;4127;47.908;10.850;2023-07-30T18:14:24;2.42;;;2.22;;
8171;SDS011;4127;47.908;10.850;2023-07-30T18:16:51;2.03;;;1.92;;
8171;SDS011;4127;47.908;10.850;2023-07-30T18:19:18;2.13;;;1.92;;
8171;SDS011;4127;47.908;10.850;2023-07-30T18:21:45;2.30;;;2.10;;
8171;SDS011;4127;47.908;10.850;2023-07-30T18:24:12;3.03;;;1.98;;
8171;SDS011;4127;47.908;10.850;2023-07-30T18:26:39;2.20;;;2.00;;
8171;SDS011;4127;47.908;10.850;2023-07-30T18:29:06;2.60;;;2.40;;
8171;SDS011;4127;47.908;10.850;2023-07-30T18:31:33;2.43;;;2.23;;
8171;SDS011;4127;47.908;10.850;2023-07-30T18:33:59;3.63;;;2.60;;
8171;SDS011;4127;47.908;10.850;2023-07-30T18:36:26;3.00;;;2.80;;
8171;SDS011;4127;47.908;10.850;2023-07-30T18:38:53;2.60;;;2.40;;
8171;SDS011;4127;47.908;10.850;2023-07-30T18:41:20;2.13;;;2.03;;
8171;SDS011;4127;47.908;10.850;2023-07-30T18:43:47;3.27;;;2.97;;
8171;SDS011;4127;47.908;10.850;2023-07-30T18:46:14;2.53;;;2.33;;
8171;SDS011;4127;47.908;10.850;2023-07-30T18:48:41;2.97;;;2.77;;
8171;SDS011;4127;47.908;10.850;2023-07-30T18:51:08;2.73;;;2.53;;
8171;SDS011;4127;47.908;10.850;2023-07-30T18:53:34;3.20;;;3.00;;
8171;SDS011;4127;47.908;10.850;2023-07-30T18:56:02;3.50;;;3.20;;
8171;SDS011;4127;47.908;10.850;2023-07-30T18:58:31;3.83;;;2.93;;
8171;SDS011;4127;47.908;10.850;2023-07-30T19:00:58;2.40;;;2.20;;
8171;SDS011;4127;47.908;10.850;2023-07-30T19:03:25;2.30;;;2.10;;
8171;SDS011;4127;47.908;10.850;2023-07-30T19:05:55;2.40;;;2.20;;
8171;SDS011;4127;47.908;10.850;2023-07-30T19:08:22;2.70;;;2.50;;
8171;SDS011;4127;47.908;10.850;2023-07-30T19:10:50;2.97;;;2.60;;
8171;SDS011;4127;47.908;10.850;2023-07-30T19:13:17;2.77;;;2.30;;
8171;SDS011;4127;47.908;10.850;2023-07-30T19:15:45;2.33;;;2.17;;
8171;SDS011;4127;47.908;10.850;2023-07-30T19:18:12;2.90;;;2.60;;
8171;SDS011;4127;47.908;10.850;2023-07-30T19:20:40;2.53;;;2.33;;
8171;SDS011;4127;47.908;10.850;2023-07-30T19:23:06;2.60;;;2.40;;
8171;SDS011;4127;47.908;10.850;2023-07-30T19:25:33;2.67;;;2.47;;
8171;SDS011;4127;47.908;10.850;2023-07-30T19:30:49;2.70;;;2.50;;
8171;SDS011;4127;47.908;10.850;2023-07-30T19:33:17;3.33;;;2.40;;
8171;SDS011;4127;47.908;10.850;2023-07-30T19:35:44;3.00;;;2.40;;
8171;SDS011;4127;47.908;10.850;2023-07-30T19:38:17;3.03;;;2.60;;
8171;SDS011;4127;47.908;10.850;2023-07-30T19:40:44;2.67;;;2.30;;
8171;SDS011;4127;47.908;10.850;2023-07-30T19:43:16;3.20;;;2.70;;
8171;SDS011;4127;47.908;10.850;2023-07-30T19:45:46;2.87;;;2.60;;
8171;SDS011;4127;47.908;10.850;2023-07-30T19:48:14;2.27;;;2.07;;
8171;SDS011;4127;47.908;10.850;2023-07-30T19:50:41;2.77;;;2.30;;
8171;SDS011;4127;47.908;10.850;2023-07-30T19:53:27;2.57;;;2.37;;
8171;SDS011;4127;47.908;10.850;2023-07-30T19:55:55;2.97;;;2.30;;
8171;SDS011;4127;47.908;10.850;2023-07-30T19:58:26;3.00;;;2.33;;
8171;SDS011;4127;47.908;10.850;2023-07-30T20:00:55;3.10;;;2.20;;
8171;SDS011;4127;47.908;10.850;2023-07-30T20:03:24;2.60;;;2.40;;
8171;SDS011;4127;47.908;10.850;2023-07-30T20:05:52;2.63;;;2.17;;
8171;SDS011;4127;47.908;10.850;2023-07-30T20:08:23;2.07;;;1.90;;
8171;SDS011;4127;47.908;10.850;2023-07-30T20:10:53;2.30;;;2.10;;
8171;SDS011;4127;47.908;10.850;2023-07-30T20:13:29;2.57;;;2.20;;
8171;SDS011;4127;47.908;10.850;2023-07-30T20:15:56;2.20;;;2.00;;
8171;SDS011;4127;47.908;10.850;2023-07-30T20:18:24;3.23;;;2.47;;
8171;SDS011;4127;47.908;10.850;2023-07-30T20:20:52;3.43;;;2.10;;
8171;SDS011;4127;47.908;10.850;2023-07-30T20:23:19;3.50;;;2.10;;
8171;SDS011;4127;47.908;10.850;2023-07-30T20:25:47;2.40;;;2.00;;
8171;SDS011;4127;47.908;10.850;2023-07-30T20:28:26;2.40;;;2.13;;
